METAR AND TAF INFORMATION
METAR FOR EKRN
ADDS - METARS form results

(1948 UTC 03 August 2021)
Data provider http://aviationweather.gov/metar/data/
 
METAR text: EKRN 031920Z AUTO 31002KT 9999 NCD 16/11 Q1013
Conditions at: EKRN (RONNE , DK) observed 1920 UTC 03 August 2021
Temperature: 16.0°C (61°F)
Dewpoint: 11.0°C (52°F) [RH = 72%]
Pressure (altimeter): 29.91 inches Hg (1013.0 mb)
Winds: from the NW (310 degrees) at 2 MPH (2 knots; 1.0 m/s)
Visibility: 6 or more miles (10+ km)
Ceiling: at least 12,000 feet AGL
Clouds: sky clear below 12,000 feet AGL
Weather: no significant weather observed at this time

METAR text: EKRN 031850Z AUTO 29005KT 9999 NCD 17/12 Q1013
Conditions at: EKRN (RONNE , DK) observed 1850 UTC 03 August 2021
Temperature: 17.0°C (63°F)
Dewpoint: 12.0°C (54°F) [RH = 72%]
Pressure (altimeter): 29.91 inches Hg (1013.0 mb)
Winds: from the WNW (290 degrees) at 6 MPH (5 knots; 2.6 m/s)
Visibility: 6 or more miles (10+ km)
Ceiling: at least 12,000 feet AGL
Clouds: sky clear below 12,000 feet AGL
Weather: no significant weather observed at this time

Forecast for: EKRN (RONNE , DK)
Text: TAF EKRN 031401Z 0315/0321 27008KT 9999 FEW030
Forecast period: 1500 to 2100 UTC 03 August 2021
Forecast type: FROM: standard forecast or significant change
Winds: from the W (270 degrees) at 9 MPH (8 knots; 4.1 m/s)
Visibility: 6 or more miles (10+ km)
Ceiling: at least 12,000 feet AGL
Clouds: few clouds at 3000 feet AGL
Weather: no significant weather forecast for this period

 AIRPORT MAP

 RUNWAY INFORMATION
Runway 11 Runway length 6568 ft Runway width 148 ft
Runway elevation 46 ft Runway displaced threshold 0 ft Runway heading 114
Runway 29 Runway length 6568 ft Runway width 148 ft
Runway elevation 51 ft Runway displaced threshold 0 ft Runway heading 294

 AIRPORT FREQUENCIES
Type MISC Name HANDLING Frequency 131.55 MHZ
Type APP/TWR Name Frequency 118.325 MHZ

 AIRPORT NEAR NAVIGATION AIDS
Type TACAN Name Ronne Frequency 112000 KHZ
Type VOR-DME Name Ronne Frequency 112000 KHZ





Powered by Virtual Airlines Manager

Maps by Rafael Santos